Terminal Aerodrome Forecast
Issued by NWS St Louis, MO

Home | Current Version | Previous Version | Text Only | Print | Product List | Glossary On
Versions: 1 2 3 4 5 6 7 8 9 10 11 12 13 14 15 16 17 18 19 20 21 22 23
000
FTUS43 KLSX 220531
TAFCOU
TAF
KCOU 220531Z 2206/2306 06009KT 6SM -SHRA OVC060
     FM221000 04009KT P6SM VCSH OVC060
     FM221400 02011G20KT P6SM OVC035
     FM221800 35014G22KT P6SM BKN045
     FM230400 33010KT P6SM BKN015=

USA.gov is the U.S. government's official web portal to all federal, state and local government web resources and services.